sensor_id;sensor_type;location;lat;lon;timestamp;temperature;humidity
7206;DHT22;3644;53.480;10.004;2023-04-03T00:00:08;3.60;99.90
7206;DHT22;3644;53.480;10.004;2023-04-03T00:02:33;3.60;99.90
7206;DHT22;3644;53.480;10.004;2023-04-03T00:04:59;3.60;99.90
7206;DHT22;3644;53.480;10.004;2023-04-03T00:07:25;3.70;99.90
7206;DHT22;3644;53.480;10.004;2023-04-03T00:09:50;3.90;99.90
7206;DHT22;3644;53.480;10.004;2023-04-03T00:12:16;4.10;99.90
7206;DHT22;3644;53.480;10.004;2023-04-03T00:14:41;3.90;99.90
7206;DHT22;3644;53.480;10.004;2023-04-03T00:17:07;3.80;99.90
7206;DHT22;3644;53.480;10.004;2023-04-03T00:19:32;4.00;99.90
7206;DHT22;3644;53.480;10.004;2023-04-03T00:21:58;4.10;99.90
7206;DHT22;3644;53.480;10.004;2023-04-03T00:24:23;4.20;99.90
7206;DHT22;3644;53.480;10.004;2023-04-03T00:26:49;4.30;99.90
7206;DHT22;3644;53.480;10.004;2023-04-03T00:29:14;4.40;99.90
7206;DHT22;3644;53.480;10.004;2023-04-03T00:31:40;4.30;99.90
7206;DHT22;3644;53.480;10.004;2023-04-03T00:34:05;4.10;99.90
7206;DHT22;3644;53.480;10.004;2023-04-03T00:36:31;4.20;99.90
7206;DHT22;3644;53.480;10.004;2023-04-03T00:38:56;4.30;99.90
7206;DHT22;3644;53.480;10.004;2023-04-03T00:41:22;4.30;99.90
7206;DHT22;3644;53.480;10.004;2023-04-03T00:43:47;4.30;99.90
7206;DHT22;3644;53.480;10.004;2023-04-03T00:46:13;4.20;99.90
7206;DHT22;3644;53.480;10.004;2023-04-03T00:48:41;4.20;99.90
7206;DHT22;3644;53.480;10.004;2023-04-03T00:51:13;4.20;99.90
7206;DHT22;3644;53.480;10.004;2023-04-03T00:53:43;4.10;99.90
7206;DHT22;3644;53.480;10.004;2023-04-03T00:56:12;4.10;99.90
7206;DHT22;3644;53.480;10.004;2023-04-03T00:58:48;3.90;99.90
7206;DHT22;3644;53.480;10.004;2023-04-03T01:01:19;3.90;99.90
7206;DHT22;3644;53.480;10.004;2023-04-03T01:03:46;4.00;99.90
7206;DHT22;3644;53.480;10.004;2023-04-03T01:06:13;3.90;99.90
7206;DHT22;3644;53.480;10.004;2023-04-03T01:08:41;4.00;99.90
7206;DHT22;3644;53.480;10.004;2023-04-03T01:11:07;4.00;99.90
7206;DHT22;3644;53.480;10.004;2023-04-03T01:13:33;3.90;99.90
7206;DHT22;3644;53.480;10.004;2023-04-03T01:16:05;4.10;99.90
7206;DHT22;3644;53.480;10.004;2023-04-03T01:18:32;4.00;99.90
7206;DHT22;3644;53.480;10.004;2023-04-03T01:21:10;3.80;99.90
7206;DHT22;3644;53.480;10.004;2023-04-03T01:23:42;3.70;99.90
7206;DHT22;3644;53.480;10.004;2023-04-03T01:26:09;3.60;99.90
7206;DHT22;3644;53.480;10.004;2023-04-03T01:28:36;3.50;99.90
7206;DHT22;3644;53.480;10.004;2023-04-03T01:31:21;3.40;99.90
7206;DHT22;3644;53.480;10.004;2023-04-03T01:33:48;3.50;99.90
7206;DHT22;3644;53.480;10.004;2023-04-03T01:36:19;3.60;99.90
7206;DHT22;3644;53.480;10.004;2023-04-03T01:38:44;3.50;99.90
7206;DHT22;3644;53.480;10.004;2023-04-03T01:41:10;3.70;99.90
7206;DHT22;3644;53.480;10.004;2023-04-03T01:43:36;3.60;99.90
7206;DHT22;3644;53.480;10.004;2023-04-03T01:46:01;3.50;99.90
7206;DHT22;3644;53.480;10.004;2023-04-03T01:48:27;3.30;99.90
7206;DHT22;3644;53.480;10.004;2023-04-03T01:50:53;3.30;99.90
7206;DHT22;3644;53.480;10.004;2023-04-03T01:53:18;3.40;99.90
7206;DHT22;3644;53.480;10.004;2023-04-03T01:55:44;3.40;99.90
7206;DHT22;3644;53.480;10.004;2023-04-03T01:58:10;3.50;99.90
7206;DHT22;3644;53.480;10.004;2023-04-03T02:00:36;3.60;99.90
7206;DHT22;3644;53.480;10.004;2023-04-03T02:03:02;3.60;99.90
7206;DHT22;3644;53.480;10.004;2023-04-03T02:05:28;3.70;99.90
7206;DHT22;3644;53.480;10.004;2023-04-03T02:07:53;3.80;99.90
7206;DHT22;3644;53.480;10.004;2023-04-03T02:10:19;3.70;99.90
7206;DHT22;3644;53.480;10.004;2023-04-03T02:12:44;3.70;99.90
7206;DHT22;3644;53.480;10.004;2023-04-03T02:15:10;3.70;99.90
7206;DHT22;3644;53.480;10.004;2023-04-03T02:17:36;3.70;99.90
7206;DHT22;3644;53.480;10.004;2023-04-03T02:20:01;3.80;99.90
7206;DHT22;3644;53.480;10.004;2023-04-03T02:22:28;3.90;99.90
7206;DHT22;3644;53.480;10.004;2023-04-03T02:24:54;3.80;99.90
7206;DHT22;3644;53.480;10.004;2023-04-03T02:27:19;3.70;99.90
7206;DHT22;3644;53.480;10.004;2023-04-03T02:29:45;3.60;99.90
7206;DHT22;3644;53.480;10.004;2023-04-03T02:32:11;3.50;99.90
7206;DHT22;3644;53.480;10.004;2023-04-03T02:34:36;3.60;99.90
7206;DHT22;3644;53.480;10.004;2023-04-03T02:37:02;3.50;99.90
7206;DHT22;3644;53.480;10.004;2023-04-03T02:39:27;3.40;99.90
7206;DHT22;3644;53.480;10.004;2023-04-03T02:41:53;3.40;99.90
7206;DHT22;3644;53.480;10.004;2023-04-03T02:44:18;3.40;99.90
7206;DHT22;3644;53.480;10.004;2023-04-03T02:46:44;3.50;99.90
7206;DHT22;3644;53.480;10.004;2023-04-03T02:49:10;3.60;99.90
7206;DHT22;3644;53.480;10.004;2023-04-03T02:51:35;3.70;99.90
7206;DHT22;3644;53.480;10.004;2023-04-03T02:54:01;3.60;99.90
7206;DHT22;3644;53.480;10.004;2023-04-03T02:56:26;3.60;99.90
7206;DHT22;3644;53.480;10.004;2023-04-03T02:58:52;3.70;99.90
7206;DHT22;3644;53.480;10.004;2023-04-03T03:01:18;3.60;99.90
7206;DHT22;3644;53.480;10.004;2023-04-03T03:03:43;3.60;99.90
7206;DHT22;3644;53.480;10.004;2023-04-03T03:06:11;3.70;99.90
7206;DHT22;3644;53.480;10.004;2023-04-03T03:08:37;3.60;99.90
7206;DHT22;3644;53.480;10.004;2023-04-03T03:11:04;3.70;99.90
7206;DHT22;3644;53.480;10.004;2023-04-03T03:13:31;3.60;99.90
7206;DHT22;3644;53.480;10.004;2023-04-03T03:15:57;3.60;99.90
7206;DHT22;3644;53.480;10.004;2023-04-03T03:18:22;3.60;99.90
7206;DHT22;3644;53.480;10.004;2023-04-03T03:20:53;3.60;99.90
7206;DHT22;3644;53.480;10.004;2023-04-03T03:23:19;3.70;99.90
7206;DHT22;3644;53.480;10.004;2023-04-03T03:25:44;3.60;99.90
7206;DHT22;3644;53.480;10.004;2023-04-03T03:28:10;3.80;99.90
7206;DHT22;3644;53.480;10.004;2023-04-03T03:30:37;3.80;99.90
7206;DHT22;3644;53.480;10.004;2023-04-03T03:33:02;3.80;99.90
7206;DHT22;3644;53.480;10.004;2023-04-03T03:35:28;3.80;99.90
7206;DHT22;3644;53.480;10.004;2023-04-03T03:37:54;3.70;99.90
7206;DHT22;3644;53.480;10.004;2023-04-03T03:40:19;3.70;99.90
7206;DHT22;3644;53.480;10.004;2023-04-03T03:42:45;3.80;99.90
7206;DHT22;3644;53.480;10.004;2023-04-03T03:45:10;3.70;99.90
7206;DHT22;3644;53.480;10.004;2023-04-03T03:47:36;3.60;99.90
7206;DHT22;3644;53.480;10.004;2023-04-03T03:50:02;3.50;99.90
7206;DHT22;3644;53.480;10.004;2023-04-03T03:52:28;3.50;99.90
7206;DHT22;3644;53.480;10.004;2023-04-03T03:54:53;3.50;99.90
7206;DHT22;3644;53.480;10.004;2023-04-03T03:57:19;3.60;99.90
7206;DHT22;3644;53.480;10.004;2023-04-03T03:59:44;3.40;99.90
7206;DHT22;3644;53.480;10.004;2023-04-03T04:02:10;3.40;99.90
7206;DHT22;3644;53.480;10.004;2023-04-03T04:04:36;3.50;99.90
7206;DHT22;3644;53.480;10.004;2023-04-03T04:07:03;3.50;99.90
7206;DHT22;3644;53.480;10.004;2023-04-03T04:09:28;3.50;99.90
7206;DHT22;3644;53.480;10.004;2023-04-03T04:11:54;3.40;99.90
7206;DHT22;3644;53.480;10.004;2023-04-03T04:14:19;3.40;99.90
7206;DHT22;3644;53.480;10.004;2023-04-03T04:16:48;3.40;99.90
7206;DHT22;3644;53.480;10.004;2023-04-03T04:19:13;3.40;99.90
7206;DHT22;3644;53.480;10.004;2023-04-03T04:21:39;3.30;99.90
7206;DHT22;3644;53.480;10.004;2023-04-03T04:24:05;3.30;99.90
7206;DHT22;3644;53.480;10.004;2023-04-03T04:26:31;3.30;99.90
7206;DHT22;3644;53.480;10.004;2023-04-03T04:28:56;3.30;99.90
7206;DHT22;3644;53.480;10.004;2023-04-03T04:31:22;3.30;99.90
7206;DHT22;3644;53.480;10.004;2023-04-03T04:33:48;3.40;99.90
7206;DHT22;3644;53.480;10.004;2023-04-03T04:36:13;3.40;99.90
7206;DHT22;3644;53.480;10.004;2023-04-03T04:38:40;3.30;99.90
7206;DHT22;3644;53.480;10.004;2023-04-03T04:41:05;3.30;99.90
7206;DHT22;3644;53.480;10.004;2023-04-03T04:43:31;3.30;99.90
7206;DHT22;3644;53.480;10.004;2023-04-03T04:46:04;3.10;99.90
7206;DHT22;3644;53.480;10.004;2023-04-03T04:48:30;3.20;99.90
7206;DHT22;3644;53.480;10.004;2023-04-03T04:50:55;3.10;99.90
7206;DHT22;3644;53.480;10.004;2023-04-03T04:53:21;3.10;99.90
7206;DHT22;3644;53.480;10.004;2023-04-03T04:55:46;3.10;99.90
7206;DHT22;3644;53.480;10.004;2023-04-03T04:58:12;3.10;99.90
7206;DHT22;3644;53.480;10.004;2023-04-03T05:00:38;3.00;99.90
7206;DHT22;3644;53.480;10.004;2023-04-03T05:03:03;3.20;99.90
7206;DHT22;3644;53.480;10.004;2023-04-03T05:05:28;3.10;99.90
7206;DHT22;3644;53.480;10.004;2023-04-03T05:07:54;3.10;99.90
7206;DHT22;3644;53.480;10.004;2023-04-03T05:10:20;3.10;99.90
7206;DHT22;3644;53.480;10.004;2023-04-03T05:12:45;3.00;99.90
7206;DHT22;3644;53.480;10.004;2023-04-03T05:15:11;3.10;99.90
7206;DHT22;3644;53.480;10.004;2023-04-03T05:17:37;3.10;99.90
7206;DHT22;3644;53.480;10.004;2023-04-03T05:20:03;3.10;99.90
7206;DHT22;3644;53.480;10.004;2023-04-03T05:22:30;3.10;99.90
7206;DHT22;3644;53.480;10.004;2023-04-03T05:24:55;3.20;99.90
7206;DHT22;3644;53.480;10.004;2023-04-03T05:27:21;3.10;99.90
7206;DHT22;3644;53.480;10.004;2023-04-03T05:29:48;3.10;99.90
7206;DHT22;3644;53.480;10.004;2023-04-03T05:32:14;3.20;99.90
7206;DHT22;3644;53.480;10.004;2023-04-03T05:34:40;3.20;99.90
7206;DHT22;3644;53.480;10.004;2023-04-03T05:37:05;3.20;99.90
7206;DHT22;3644;53.480;10.004;2023-04-03T05:39:31;3.20;99.90
7206;DHT22;3644;53.480;10.004;2023-04-03T05:41:57;3.20;99.90
7206;DHT22;3644;53.480;10.004;2023-04-03T05:44:22;3.20;99.90
7206;DHT22;3644;53.480;10.004;2023-04-03T05:46:48;3.30;99.90
7206;DHT22;3644;53.480;10.004;2023-04-03T05:49:13;3.30;99.90
7206;DHT22;3644;53.480;10.004;2023-04-03T05:51:39;3.50;99.90
7206;DHT22;3644;53.480;10.004;2023-04-03T05:54:13;3.40;99.90
7206;DHT22;3644;53.480;10.004;2023-04-03T05:56:41;3.40;99.90
7206;DHT22;3644;53.480;10.004;2023-04-03T05:59:06;3.40;99.90
7206;DHT22;3644;53.480;10.004;2023-04-03T06:01:32;3.50;99.90
7206;DHT22;3644;53.480;10.004;2023-04-03T06:03:59;3.50;99.90
7206;DHT22;3644;53.480;10.004;2023-04-03T06:06:24;3.60;99.90
7206;DHT22;3644;53.480;10.004;2023-04-03T06:08:50;3.60;99.90
7206;DHT22;3644;53.480;10.004;2023-04-03T06:11:16;3.60;99.90
7206;DHT22;3644;53.480;10.004;2023-04-03T06:13:42;3.70;99.90
7206;DHT22;3644;53.480;10.004;2023-04-03T06:16:11;3.60;99.90
7206;DHT22;3644;53.480;10.004;2023-04-03T06:18:39;3.80;99.90
7206;DHT22;3644;53.480;10.004;2023-04-03T06:21:05;3.80;99.90
7206;DHT22;3644;53.480;10.004;2023-04-03T06:23:33;3.90;99.90
7206;DHT22;3644;53.480;10.004;2023-04-03T06:25:58;4.00;99.90
7206;DHT22;3644;53.480;10.004;2023-04-03T06:28:24;4.30;99.90
7206;DHT22;3644;53.480;10.004;2023-04-03T06:30:49;4.60;99.90
7206;DHT22;3644;53.480;10.004;2023-04-03T06:33:15;4.70;99.90
7206;DHT22;3644;53.480;10.004;2023-04-03T06:35:40;4.70;99.90
7206;DHT22;3644;53.480;10.004;2023-04-03T06:38:06;4.70;99.90
7206;DHT22;3644;53.480;10.004;2023-04-03T06:40:34;4.70;99.90
7206;DHT22;3644;53.480;10.004;2023-04-03T06:43:00;4.60;99.90
7206;DHT22;3644;53.480;10.004;2023-04-03T06:45:26;4.40;99.90
7206;DHT22;3644;53.480;10.004;2023-04-03T06:47:53;4.50;99.90
7206;DHT22;3644;53.480;10.004;2023-04-03T06:50:18;4.40;99.90
7206;DHT22;3644;53.480;10.004;2023-04-03T06:52:44;4.40;99.90
7206;DHT22;3644;53.480;10.004;2023-04-03T06:55:09;4.30;99.90
7206;DHT22;3644;53.480;10.004;2023-04-03T06:57:36;4.20;99.90
7206;DHT22;3644;53.480;10.004;2023-04-03T07:00:03;4.50;99.90
7206;DHT22;3644;53.480;10.004;2023-04-03T07:02:29;4.50;99.90
7206;DHT22;3644;53.480;10.004;2023-04-03T07:04:55;4.70;99.90
7206;DHT22;3644;53.480;10.004;2023-04-03T07:07:20;4.80;99.90
7206;DHT22;3644;53.480;10.004;2023-04-03T07:09:46;4.70;99.90
7206;DHT22;3644;53.480;10.004;2023-04-03T07:12:13;5.00;99.90
7206;DHT22;3644;53.480;10.004;2023-04-03T07:14:38;5.10;99.90
7206;DHT22;3644;53.480;10.004;2023-04-03T07:17:04;5.00;99.90
7206;DHT22;3644;53.480;10.004;2023-04-03T07:19:30;5.00;99.90
7206;DHT22;3644;53.480;10.004;2023-04-03T07:21:56;5.00;99.90
7206;DHT22;3644;53.480;10.004;2023-04-03T07:24:22;5.20;99.90
7206;DHT22;3644;53.480;10.004;2023-04-03T07:26:51;5.40;99.90
7206;DHT22;3644;53.480;10.004;2023-04-03T07:29:17;5.50;99.90
7206;DHT22;3644;53.480;10.004;2023-04-03T07:31:42;5.60;99.90
7206;DHT22;3644;53.480;10.004;2023-04-03T07:34:10;5.60;99.90
7206;DHT22;3644;53.480;10.004;2023-04-03T07:36:36;5.40;99.90
7206;DHT22;3644;53.480;10.004;2023-04-03T07:39:01;5.40;99.90
7206;DHT22;3644;53.480;10.004;2023-04-03T07:41:27;5.40;99.90
7206;DHT22;3644;53.480;10.004;2023-04-03T07:43:54;5.50;99.90
7206;DHT22;3644;53.480;10.004;2023-04-03T07:46:20;5.50;99.90
7206;DHT22;3644;53.480;10.004;2023-04-03T07:48:46;5.60;99.90
7206;DHT22;3644;53.480;10.004;2023-04-03T07:51:11;5.50;99.90
7206;DHT22;3644;53.480;10.004;2023-04-03T07:53:38;5.60;99.90
7206;DHT22;3644;53.480;10.004;2023-04-03T07:56:03;5.50;99.90
7206;DHT22;3644;53.480;10.004;2023-04-03T07:58:29;5.40;99.90
7206;DHT22;3644;53.480;10.004;2023-04-03T08:00:55;5.50;99.90
7206;DHT22;3644;53.480;10.004;2023-04-03T08:03:21;5.60;99.90
7206;DHT22;3644;53.480;10.004;2023-04-03T08:05:49;5.70;99.90
7206;DHT22;3644;53.480;10.004;2023-04-03T08:08:17;5.70;99.90
7206;DHT22;3644;53.480;10.004;2023-04-03T08:10:43;6.00;99.90
7206;DHT22;3644;53.480;10.004;2023-04-03T08:13:12;6.30;99.90
7206;DHT22;3644;53.480;10.004;2023-04-03T08:15:38;6.30;99.90
7206;DHT22;3644;53.480;10.004;2023-04-03T08:18:04;6.60;99.90
7206;DHT22;3644;53.480;10.004;2023-04-03T08:20:30;6.80;99.90
7206;DHT22;3644;53.480;10.004;2023-04-03T08:22:55;7.00;99.90
7206;DHT22;3644;53.480;10.004;2023-04-03T08:25:21;6.60;99.90
7206;DHT22;3644;53.480;10.004;2023-04-03T08:27:46;6.50;99.90
7206;DHT22;3644;53.480;10.004;2023-04-03T08:30:12;6.50;99.90
7206;DHT22;3644;53.480;10.004;2023-04-03T08:32:38;6.30;99.90
7206;DHT22;3644;53.480;10.004;2023-04-03T08:35:04;6.40;99.90
7206;DHT22;3644;53.480;10.004;2023-04-03T08:37:30;6.70;99.90
7206;DHT22;3644;53.480;10.004;2023-04-03T08:39:56;7.00;99.90
7206;DHT22;3644;53.480;10.004;2023-04-03T08:45:13;7.30;99.90
7206;DHT22;3644;53.480;10.004;2023-04-03T08:47:57;7.40;99.90
7206;DHT22;3644;53.480;10.004;2023-04-03T08:50:33;7.60;99.90
7206;DHT22;3644;53.480;10.004;2023-04-03T08:53:02;7.70;99.90
7206;DHT22;3644;53.480;10.004;2023-04-03T08:55:32;7.80;99.90
7206;DHT22;3644;53.480;10.004;2023-04-03T08:58:07;7.90;99.90
7206;DHT22;3644;53.480;10.004;2023-04-03T09:00:43;8.00;99.90
7206;DHT22;3644;53.480;10.004;2023-04-03T09:03:13;8.10;99.90
7206;DHT22;3644;53.480;10.004;2023-04-03T09:10:41;7.70;99.90
7206;DHT22;3644;53.480;10.004;2023-04-03T09:13:30;7.40;98.50
7206;DHT22;3644;53.480;10.004;2023-04-03T09:15:59;7.70;97.80
7206;DHT22;3644;53.480;10.004;2023-04-03T09:18:30;7.70;99.90
7206;DHT22;3644;53.480;10.004;2023-04-03T09:21:23;7.90;99.90
7206;DHT22;3644;53.480;10.004;2023-04-03T09:23:52;7.80;99.90
7206;DHT22;3644;53.480;10.004;2023-04-03T09:26:26;7.70;97.30
7206;DHT22;3644;53.480;10.004;2023-04-03T09:28:57;7.80;98.40
7206;DHT22;3644;53.480;10.004;2023-04-03T09:31:26;8.00;99.10
7206;DHT22;3644;53.480;10.004;2023-04-03T09:33:59;8.20;99.50
7206;DHT22;3644;53.480;10.004;2023-04-03T09:36:43;8.20;96.00
7206;DHT22;3644;53.480;10.004;2023-04-03T09:39:18;8.10;99.40
7206;DHT22;3644;53.480;10.004;2023-04-03T09:42:04;8.40;99.90
7206;DHT22;3644;53.480;10.004;2023-04-03T09:44:33;8.10;95.20
7206;DHT22;3644;53.480;10.004;2023-04-03T09:46:59;8.20;94.70
7206;DHT22;3644;53.480;10.004;2023-04-03T09:49:26;8.00;94.30
7206;DHT22;3644;53.480;10.004;2023-04-03T09:51:52;7.90;95.20
7206;DHT22;3644;53.480;10.004;2023-04-03T09:54:37;8.00;99.90
7206;DHT22;3644;53.480;10.004;2023-04-03T09:57:08;8.20;93.60
7206;DHT22;3644;53.480;10.004;2023-04-03T09:59:36;8.40;92.90
7206;DHT22;3644;53.480;10.004;2023-04-03T10:02:28;8.40;91.80
7206;DHT22;3644;53.480;10.004;2023-04-03T10:04:56;8.30;92.60
7206;DHT22;3644;53.480;10.004;2023-04-03T10:07:32;8.50;91.30
7206;DHT22;3644;53.480;10.004;2023-04-03T10:10:22;8.70;84.70
7206;DHT22;3644;53.480;10.004;2023-04-03T10:12:48;8.50;75.50
7206;DHT22;3644;53.480;10.004;2023-04-03T10:15:16;8.60;76.40
7206;DHT22;3644;53.480;10.004;2023-04-03T10:17:55;8.90;77.00
7206;DHT22;3644;53.480;10.004;2023-04-03T10:20:33;8.80;68.80
7206;DHT22;3644;53.480;10.004;2023-04-03T10:23:21;8.70;66.60
7206;DHT22;3644;53.480;10.004;2023-04-03T10:29:05;8.70;64.10
7206;DHT22;3644;53.480;10.004;2023-04-03T10:31:46;8.60;65.30
7206;DHT22;3644;53.480;10.004;2023-04-03T10:34:35;8.70;63.00
7206;DHT22;3644;53.480;10.004;2023-04-03T10:37:21;8.80;68.60
7206;DHT22;3644;53.480;10.004;2023-04-03T10:43:04;9.10;65.00
7206;DHT22;3644;53.480;10.004;2023-04-03T10:45:54;8.70;63.00
7206;DHT22;3644;53.480;10.004;2023-04-03T10:50:49;8.30;64.60
7206;DHT22;3644;53.480;10.004;2023-04-03T10:53:39;8.60;67.20
7206;DHT22;3644;53.480;10.004;2023-04-03T10:58:46;9.10;69.40
7206;DHT22;3644;53.480;10.004;2023-04-03T11:01:23;9.20;68.90
7206;DHT22;3644;53.480;10.004;2023-04-03T11:03:57;9.30;64.40
7206;DHT22;3644;53.480;10.004;2023-04-03T11:06:26;9.10;67.30
7206;DHT22;3644;53.480;10.004;2023-04-03T11:09:04;9.30;68.10
7206;DHT22;3644;53.480;10.004;2023-04-03T11:11:37;9.20;65.90
7206;DHT22;3644;53.480;10.004;2023-04-03T11:14:24;8.90;64.70
7206;DHT22;3644;53.480;10.004;2023-04-03T11:17:11;9.20;66.00
7206;DHT22;3644;53.480;10.004;2023-04-03T11:22:36;9.00;66.00
7206;DHT22;3644;53.480;10.004;2023-04-03T11:25:21;9.20;67.30
7206;DHT22;3644;53.480;10.004;2023-04-03T11:27:57;9.20;68.40
7206;DHT22;3644;53.480;10.004;2023-04-03T11:36:18;9.60;69.10
7206;DHT22;3644;53.480;10.004;2023-04-03T11:38:46;9.70;72.60
7206;DHT22;3644;53.480;10.004;2023-04-03T11:41:13;9.50;67.20
7206;DHT22;3644;53.480;10.004;2023-04-03T11:43:59;9.50;69.70
7206;DHT22;3644;53.480;10.004;2023-04-03T11:46:54;9.80;74.50
7206;DHT22;3644;53.480;10.004;2023-04-03T11:58:04;10.90;70.80
7206;DHT22;3644;53.480;10.004;2023-04-03T12:05:57;11.30;71.50
7206;DHT22;3644;53.480;10.004;2023-04-03T12:16:56;10.30;65.20
7206;DHT22;3644;53.480;10.004;2023-04-03T12:48:30;10.80;60.40
7206;DHT22;3644;53.480;10.004;2023-04-03T12:50:58;10.20;60.70
7206;DHT22;3644;53.480;10.004;2023-04-03T12:53:29;9.90;62.70
7206;DHT22;3644;53.480;10.004;2023-04-03T12:56:23;10.20;64.00
7206;DHT22;3644;53.480;10.004;2023-04-03T12:58:52;10.60;63.00
7206;DHT22;3644;53.480;10.004;2023-04-03T13:01:25;10.60;58.90
7206;DHT22;3644;53.480;10.004;2023-04-03T13:03:56;10.70;58.90
7206;DHT22;3644;53.480;10.004;2023-04-03T13:06:23;10.90;59.50
7206;DHT22;3644;53.480;10.004;2023-04-03T13:11:16;10.60;60.30
7206;DHT22;3644;53.480;10.004;2023-04-03T13:13:58;10.30;61.80
7206;DHT22;3644;53.480;10.004;2023-04-03T13:16:24;10.00;63.50
7206;DHT22;3644;53.480;10.004;2023-04-03T13:18:54;9.70;64.70
7206;DHT22;3644;53.480;10.004;2023-04-03T13:21:28;9.80;67.40
7206;DHT22;3644;53.480;10.004;2023-04-03T13:23:59;10.00;66.70
7206;DHT22;3644;53.480;10.004;2023-04-03T13:26:29;10.30;67.30
7206;DHT22;3644;53.480;10.004;2023-04-03T13:29:00;10.80;66.60
7206;DHT22;3644;53.480;10.004;2023-04-03T13:31:36;11.00;62.40
7206;DHT22;3644;53.480;10.004;2023-04-03T13:34:27;10.60;59.00
7206;DHT22;3644;53.480;10.004;2023-04-03T13:36:58;10.50;60.00
7206;DHT22;3644;53.480;10.004;2023-04-03T13:39:28;10.80;59.70
7206;DHT22;3644;53.480;10.004;2023-04-03T13:41:56;10.60;59.10
7206;DHT22;3644;53.480;10.004;2023-04-03T13:46:52;10.70;59.40
7206;DHT22;3644;53.480;10.004;2023-04-03T13:51:49;11.00;59.90
7206;DHT22;3644;53.480;10.004;2023-04-03T13:54:34;10.80;58.80
7206;DHT22;3644;53.480;10.004;2023-04-03T13:57:01;10.50;58.20
7206;DHT22;3644;53.480;10.004;2023-04-03T13:59:32;10.50;57.70
7206;DHT22;3644;53.480;10.004;2023-04-03T14:07:09;10.10;59.60
7206;DHT22;3644;53.480;10.004;2023-04-03T14:09:34;10.00;56.10
7206;DHT22;3644;53.480;10.004;2023-04-03T14:12:05;10.10;57.10
7206;DHT22;3644;53.480;10.004;2023-04-03T14:14:34;10.30;56.30
7206;DHT22;3644;53.480;10.004;2023-04-03T14:17:03;10.30;57.20
7206;DHT22;3644;53.480;10.004;2023-04-03T14:19:35;10.60;57.70
7206;DHT22;3644;53.480;10.004;2023-04-03T14:22:13;10.60;55.60
7206;DHT22;3644;53.480;10.004;2023-04-03T14:24:39;10.70;54.90
7206;DHT22;3644;53.480;10.004;2023-04-03T14:27:16;10.60;53.30
7206;DHT22;3644;53.480;10.004;2023-04-03T14:29:42;10.30;52.20
7206;DHT22;3644;53.480;10.004;2023-04-03T14:32:09;9.90;54.10
7206;DHT22;3644;53.480;10.004;2023-04-03T14:34:36;9.80;55.10
7206;DHT22;3644;53.480;10.004;2023-04-03T14:37:01;10.00;55.60
7206;DHT22;3644;53.480;10.004;2023-04-03T14:39:27;10.20;55.10
7206;DHT22;3644;53.480;10.004;2023-04-03T14:41:52;10.50;56.10
7206;DHT22;3644;53.480;10.004;2023-04-03T14:44:18;10.70;54.10
7206;DHT22;3644;53.480;10.004;2023-04-03T14:46:44;10.80;52.50
7206;DHT22;3644;53.480;10.004;2023-04-03T14:49:15;10.50;50.70
7206;DHT22;3644;53.480;10.004;2023-04-03T14:51:41;10.70;51.40
7206;DHT22;3644;53.480;10.004;2023-04-03T14:54:13;10.70;51.10
7206;DHT22;3644;53.480;10.004;2023-04-03T14:56:39;10.70;50.60
7206;DHT22;3644;53.480;10.004;2023-04-03T14:59:09;10.70;50.60
7206;DHT22;3644;53.480;10.004;2023-04-03T15:01:35;10.70;50.50
7206;DHT22;3644;53.480;10.004;2023-04-03T15:04:00;10.80;51.10
7206;DHT22;3644;53.480;10.004;2023-04-03T15:06:26;10.60;50.10
7206;DHT22;3644;53.480;10.004;2023-04-03T15:08:51;10.20;50.30
7206;DHT22;3644;53.480;10.004;2023-04-03T15:11:17;10.30;51.60
7206;DHT22;3644;53.480;10.004;2023-04-03T15:13:43;10.60;51.30
7206;DHT22;3644;53.480;10.004;2023-04-03T15:16:19;10.90;51.10
7206;DHT22;3644;53.480;10.004;2023-04-03T15:18:45;10.70;50.70
7206;DHT22;3644;53.480;10.004;2023-04-03T15:21:11;10.40;51.10
7206;DHT22;3644;53.480;10.004;2023-04-03T15:23:36;10.10;51.10
7206;DHT22;3644;53.480;10.004;2023-04-03T15:26:02;10.30;53.70
7206;DHT22;3644;53.480;10.004;2023-04-03T15:28:40;10.50;53.00
7206;DHT22;3644;53.480;10.004;2023-04-03T15:31:06;10.70;53.20
7206;DHT22;3644;53.480;10.004;2023-04-03T15:33:33;10.50;52.70
7206;DHT22;3644;53.480;10.004;2023-04-03T15:35:58;10.60;52.70
7206;DHT22;3644;53.480;10.004;2023-04-03T15:38:24;10.20;52.90
7206;DHT22;3644;53.480;10.004;2023-04-03T15:40:50;10.10;53.60
7206;DHT22;3644;53.480;10.004;2023-04-03T15:43:16;9.90;55.00
7206;DHT22;3644;53.480;10.004;2023-04-03T15:45:42;9.80;55.40
7206;DHT22;3644;53.480;10.004;2023-04-03T15:48:08;9.80;55.50
7206;DHT22;3644;53.480;10.004;2023-04-03T15:50:35;9.70;55.80
7206;DHT22;3644;53.480;10.004;2023-04-03T15:53:01;10.10;56.70
7206;DHT22;3644;53.480;10.004;2023-04-03T15:55:29;10.10;56.70
7206;DHT22;3644;53.480;10.004;2023-04-03T15:57:54;10.00;56.50
7206;DHT22;3644;53.480;10.004;2023-04-03T16:00:23;10.20;57.50
7206;DHT22;3644;53.480;10.004;2023-04-03T16:02:53;9.90;57.10
7206;DHT22;3644;53.480;10.004;2023-04-03T16:05:21;9.80;57.90
7206;DHT22;3644;53.480;10.004;2023-04-03T16:07:47;9.60;58.70
7206;DHT22;3644;53.480;10.004;2023-04-03T16:10:14;9.70;59.50
7206;DHT22;3644;53.480;10.004;2023-04-03T16:12:40;9.90;59.90
7206;DHT22;3644;53.480;10.004;2023-04-03T16:15:07;10.00;58.80
7206;DHT22;3644;53.480;10.004;2023-04-03T16:17:33;9.80;59.80
7206;DHT22;3644;53.480;10.004;2023-04-03T16:19:59;9.70;60.70
7206;DHT22;3644;53.480;10.004;2023-04-03T16:22:26;10.00;60.50
7206;DHT22;3644;53.480;10.004;2023-04-03T16:24:53;9.90;60.10
7206;DHT22;3644;53.480;10.004;2023-04-03T16:27:19;9.70;59.70
7206;DHT22;3644;53.480;10.004;2023-04-03T16:29:45;9.60;60.40
7206;DHT22;3644;53.480;10.004;2023-04-03T16:32:11;9.60;61.30
7206;DHT22;3644;53.480;10.004;2023-04-03T16:34:37;9.60;62.20
7206;DHT22;3644;53.480;10.004;2023-04-03T16:37:02;9.40;62.40
7206;DHT22;3644;53.480;10.004;2023-04-03T16:39:28;9.40;64.70
7206;DHT22;3644;53.480;10.004;2023-04-03T16:41:54;9.00;65.90
7206;DHT22;3644;53.480;10.004;2023-04-03T16:44:19;8.70;68.10
7206;DHT22;3644;53.480;10.004;2023-04-03T16:46:45;8.60;70.80
7206;DHT22;3644;53.480;10.004;2023-04-03T16:49:10;8.60;72.10
7206;DHT22;3644;53.480;10.004;2023-04-03T16:51:36;8.70;73.70
7206;DHT22;3644;53.480;10.004;2023-04-03T16:54:01;8.90;74.70
7206;DHT22;3644;53.480;10.004;2023-04-03T16:56:27;8.90;71.20
7206;DHT22;3644;53.480;10.004;2023-04-03T16:58:53;9.10;86.70
7206;DHT22;3644;53.480;10.004;2023-04-03T17:01:20;9.00;73.80
7206;DHT22;3644;53.480;10.004;2023-04-03T17:03:46;9.00;73.40
7206;DHT22;3644;53.480;10.004;2023-04-03T17:06:16;8.50;77.10
7206;DHT22;3644;53.480;10.004;2023-04-03T17:08:43;8.40;83.90
7206;DHT22;3644;53.480;10.004;2023-04-03T17:11:09;8.30;90.30
7206;DHT22;3644;53.480;10.004;2023-04-03T17:13:35;8.10;93.10
7206;DHT22;3644;53.480;10.004;2023-04-03T17:16:02;7.80;95.00
7206;DHT22;3644;53.480;10.004;2023-04-03T17:18:30;7.80;95.60
7206;DHT22;3644;53.480;10.004;2023-04-03T17:20:56;7.90;96.50
7206;DHT22;3644;53.480;10.004;2023-04-03T17:23:23;7.90;97.10
7206;DHT22;3644;53.480;10.004;2023-04-03T17:25:49;7.90;97.70
7206;DHT22;3644;53.480;10.004;2023-04-03T17:28:15;7.90;98.10
7206;DHT22;3644;53.480;10.004;2023-04-03T17:30:40;8.00;98.70
7206;DHT22;3644;53.480;10.004;2023-04-03T17:33:06;8.00;98.60
7206;DHT22;3644;53.480;10.004;2023-04-03T17:35:31;8.00;98.70
7206;DHT22;3644;53.480;10.004;2023-04-03T17:37:57;8.00;98.90